Terminal Aerodrome Forecast
Issued by NWS

Home | Current Version | Previous Version | Text Only | Print | Product List | Glossary On
Versions: 1 2 3 4 5 6 7 8 9 10 11 12 13 14 15 16
184
FTUS45 KTFX 022323
TAFGTF
TAF
KGTF 022323Z 0300/0324 21017KT P6SM SCT250
     FM030400 21017G25KT P6SM BKN090
     FM031700 22020G30KT P6SM SCT090=

USA.gov is the U.S. government's official web portal to all federal, state and local government web resources and services.